sensor_id;sensor_type;location;lat;lon;timestamp;temperature;humidity
18103;DHT22;9178;51.120;6.192;2022-11-15T00:01:08;8.90;99.90
18103;DHT22;9178;51.120;6.192;2022-11-15T00:03:34;8.90;99.90
18103;DHT22;9178;51.120;6.192;2022-11-15T00:06:02;8.90;99.90
18103;DHT22;9178;51.120;6.192;2022-11-15T00:08:30;9.00;99.90
18103;DHT22;9178;51.120;6.192;2022-11-15T00:11:00;9.00;99.90
18103;DHT22;9178;51.120;6.192;2022-11-15T00:13:27;9.00;99.90
18103;DHT22;9178;51.120;6.192;2022-11-15T00:15:57;9.00;99.90
18103;DHT22;9178;51.120;6.192;2022-11-15T00:18:24;9.00;99.90
18103;DHT22;9178;51.120;6.192;2022-11-15T00:20:51;9.10;99.90
18103;DHT22;9178;51.120;6.192;2022-11-15T00:23:18;9.10;99.90
18103;DHT22;9178;51.120;6.192;2022-11-15T00:25:44;9.10;99.90
18103;DHT22;9178;51.120;6.192;2022-11-15T00:28:13;9.20;99.90
18103;DHT22;9178;51.120;6.192;2022-11-15T00:30:39;9.10;99.90
18103;DHT22;9178;51.120;6.192;2022-11-15T00:33:06;9.20;99.90
18103;DHT22;9178;51.120;6.192;2022-11-15T00:35:34;9.20;99.90
18103;DHT22;9178;51.120;6.192;2022-11-15T00:38:02;9.20;99.90
18103;DHT22;9178;51.120;6.192;2022-11-15T00:40:29;9.20;99.90
18103;DHT22;9178;51.120;6.192;2022-11-15T00:42:56;9.20;99.90
18103;DHT22;9178;51.120;6.192;2022-11-15T00:45:24;9.30;99.90
18103;DHT22;9178;51.120;6.192;2022-11-15T00:47:52;9.30;99.90
18103;DHT22;9178;51.120;6.192;2022-11-15T00:50:19;9.30;99.90
18103;DHT22;9178;51.120;6.192;2022-11-15T00:52:46;9.30;99.90
18103;DHT22;9178;51.120;6.192;2022-11-15T00:55:14;9.40;99.90
18103;DHT22;9178;51.120;6.192;2022-11-15T00:57:41;9.30;99.90
18103;DHT22;9178;51.120;6.192;2022-11-15T01:00:09;9.30;99.90
18103;DHT22;9178;51.120;6.192;2022-11-15T01:02:37;9.40;99.90
18103;DHT22;9178;51.120;6.192;2022-11-15T01:05:04;9.40;99.90
18103;DHT22;9178;51.120;6.192;2022-11-15T01:07:31;9.40;99.90
18103;DHT22;9178;51.120;6.192;2022-11-15T01:09:58;9.40;99.90
18103;DHT22;9178;51.120;6.192;2022-11-15T01:12:25;9.40;99.90
18103;DHT22;9178;51.120;6.192;2022-11-15T01:14:52;9.50;99.90
18103;DHT22;9178;51.120;6.192;2022-11-15T01:17:18;9.50;99.90
18103;DHT22;9178;51.120;6.192;2022-11-15T01:19:46;9.40;99.90
18103;DHT22;9178;51.120;6.192;2022-11-15T01:22:13;9.50;99.90
18103;DHT22;9178;51.120;6.192;2022-11-15T01:24:40;9.50;99.90
18103;DHT22;9178;51.120;6.192;2022-11-15T01:27:07;9.50;99.90
18103;DHT22;9178;51.120;6.192;2022-11-15T01:29:34;9.50;99.90
18103;DHT22;9178;51.120;6.192;2022-11-15T01:32:01;9.50;99.90
18103;DHT22;9178;51.120;6.192;2022-11-15T01:34:28;9.50;99.90
18103;DHT22;9178;51.120;6.192;2022-11-15T01:36:56;9.50;99.90
18103;DHT22;9178;51.120;6.192;2022-11-15T01:39:23;9.50;99.90
18103;DHT22;9178;51.120;6.192;2022-11-15T01:41:50;9.50;99.90
18103;DHT22;9178;51.120;6.192;2022-11-15T01:44:39;9.50;99.90
18103;DHT22;9178;51.120;6.192;2022-11-15T01:47:09;9.50;99.90
18103;DHT22;9178;51.120;6.192;2022-11-15T01:49:39;9.50;99.90
18103;DHT22;9178;51.120;6.192;2022-11-15T01:52:10;9.50;99.90
18103;DHT22;9178;51.120;6.192;2022-11-15T01:54:39;9.60;99.90
18103;DHT22;9178;51.120;6.192;2022-11-15T01:57:08;9.60;99.90
18103;DHT22;9178;51.120;6.192;2022-11-15T01:59:36;9.70;99.90
18103;DHT22;9178;51.120;6.192;2022-11-15T02:02:03;9.80;99.90
18103;DHT22;9178;51.120;6.192;2022-11-15T02:04:32;9.80;99.90
18103;DHT22;9178;51.120;6.192;2022-11-15T02:06:59;9.90;99.90
18103;DHT22;9178;51.120;6.192;2022-11-15T02:09:29;9.90;99.90
18103;DHT22;9178;51.120;6.192;2022-11-15T02:11:56;10.10;99.90
18103;DHT22;9178;51.120;6.192;2022-11-15T02:14:25;10.10;99.90
18103;DHT22;9178;51.120;6.192;2022-11-15T02:16:59;10.20;99.90
18103;DHT22;9178;51.120;6.192;2022-11-15T02:19:41;10.30;99.90
18103;DHT22;9178;51.120;6.192;2022-11-15T02:22:22;10.30;99.90
18103;DHT22;9178;51.120;6.192;2022-11-15T02:25:25;10.40;99.90
18103;DHT22;9178;51.120;6.192;2022-11-15T02:28:10;10.40;99.90
18103;DHT22;9178;51.120;6.192;2022-11-15T02:30:45;10.40;99.90
18103;DHT22;9178;51.120;6.192;2022-11-15T02:33:22;10.50;99.90
18103;DHT22;9178;51.120;6.192;2022-11-15T02:35:57;10.50;99.90
18103;DHT22;9178;51.120;6.192;2022-11-15T02:38:31;10.60;99.90
18103;DHT22;9178;51.120;6.192;2022-11-15T02:41:02;10.60;99.90
18103;DHT22;9178;51.120;6.192;2022-11-15T02:43:36;10.60;99.90
18103;DHT22;9178;51.120;6.192;2022-11-15T02:46:27;10.60;99.90
18103;DHT22;9178;51.120;6.192;2022-11-15T02:49:09;10.70;99.90
18103;DHT22;9178;51.120;6.192;2022-11-15T02:51:37;10.70;99.90
18103;DHT22;9178;51.120;6.192;2022-11-15T02:54:04;10.70;99.90
18103;DHT22;9178;51.120;6.192;2022-11-15T02:56:31;10.70;99.90
18103;DHT22;9178;51.120;6.192;2022-11-15T02:59:19;10.70;99.90
18103;DHT22;9178;51.120;6.192;2022-11-15T03:02:00;10.70;99.90
18103;DHT22;9178;51.120;6.192;2022-11-15T03:04:37;10.70;99.90
18103;DHT22;9178;51.120;6.192;2022-11-15T03:07:11;10.80;99.90
18103;DHT22;9178;51.120;6.192;2022-11-15T03:09:44;10.80;99.90
18103;DHT22;9178;51.120;6.192;2022-11-15T03:12:22;10.80;99.90
18103;DHT22;9178;51.120;6.192;2022-11-15T03:14:54;10.80;99.90
18103;DHT22;9178;51.120;6.192;2022-11-15T03:17:28;10.80;99.90
18103;DHT22;9178;51.120;6.192;2022-11-15T03:19:57;10.80;99.90
18103;DHT22;9178;51.120;6.192;2022-11-15T03:22:27;10.80;99.90
18103;DHT22;9178;51.120;6.192;2022-11-15T03:24:58;10.70;99.90
18103;DHT22;9178;51.120;6.192;2022-11-15T03:27:28;10.80;99.90
18103;DHT22;9178;51.120;6.192;2022-11-15T03:30:00;10.70;99.90
18103;DHT22;9178;51.120;6.192;2022-11-15T03:32:31;10.80;99.90
18103;DHT22;9178;51.120;6.192;2022-11-15T03:35:01;10.70;99.90
18103;DHT22;9178;51.120;6.192;2022-11-15T03:37:32;10.70;99.90
18103;DHT22;9178;51.120;6.192;2022-11-15T03:40:01;10.70;99.90
18103;DHT22;9178;51.120;6.192;2022-11-15T03:42:30;10.70;99.90
18103;DHT22;9178;51.120;6.192;2022-11-15T03:45:01;10.70;99.90
18103;DHT22;9178;51.120;6.192;2022-11-15T03:47:34;10.80;99.90
18103;DHT22;9178;51.120;6.192;2022-11-15T03:50:04;10.80;99.90
18103;DHT22;9178;51.120;6.192;2022-11-15T03:52:34;10.80;99.90
18103;DHT22;9178;51.120;6.192;2022-11-15T03:55:03;10.80;99.90
18103;DHT22;9178;51.120;6.192;2022-11-15T03:57:30;10.80;99.90
18103;DHT22;9178;51.120;6.192;2022-11-15T03:59:57;10.80;99.90
18103;DHT22;9178;51.120;6.192;2022-11-15T04:02:24;10.80;99.90
18103;DHT22;9178;51.120;6.192;2022-11-15T04:04:52;10.80;99.90
18103;DHT22;9178;51.120;6.192;2022-11-15T04:07:19;10.90;99.90
18103;DHT22;9178;51.120;6.192;2022-11-15T04:09:45;10.90;99.90
18103;DHT22;9178;51.120;6.192;2022-11-15T04:12:31;10.90;99.90
18103;DHT22;9178;51.120;6.192;2022-11-15T04:15:00;10.80;99.90
18103;DHT22;9178;51.120;6.192;2022-11-15T04:17:38;10.90;99.90
18103;DHT22;9178;51.120;6.192;2022-11-15T04:20:09;10.90;99.90
18103;DHT22;9178;51.120;6.192;2022-11-15T04:22:54;10.90;99.90
18103;DHT22;9178;51.120;6.192;2022-11-15T04:25:39;10.90;99.90
18103;DHT22;9178;51.120;6.192;2022-11-15T04:28:06;10.90;99.90
18103;DHT22;9178;51.120;6.192;2022-11-15T04:30:33;10.90;99.90
18103;DHT22;9178;51.120;6.192;2022-11-15T04:33:00;10.90;99.90
18103;DHT22;9178;51.120;6.192;2022-11-15T04:35:28;11.00;99.90
18103;DHT22;9178;51.120;6.192;2022-11-15T04:37:56;11.00;99.90
18103;DHT22;9178;51.120;6.192;2022-11-15T04:40:22;11.00;99.90
18103;DHT22;9178;51.120;6.192;2022-11-15T04:42:48;11.00;99.90
18103;DHT22;9178;51.120;6.192;2022-11-15T04:45:15;11.00;99.90
18103;DHT22;9178;51.120;6.192;2022-11-15T04:47:43;11.00;99.90
18103;DHT22;9178;51.120;6.192;2022-11-15T04:50:11;11.00;99.90
18103;DHT22;9178;51.120;6.192;2022-11-15T04:52:40;11.00;99.90
18103;DHT22;9178;51.120;6.192;2022-11-15T04:55:07;11.00;99.90
18103;DHT22;9178;51.120;6.192;2022-11-15T04:57:34;11.00;99.90
18103;DHT22;9178;51.120;6.192;2022-11-15T05:00:03;11.00;99.90
18103;DHT22;9178;51.120;6.192;2022-11-15T05:02:30;11.00;99.90
18103;DHT22;9178;51.120;6.192;2022-11-15T05:05:16;11.10;99.90
18103;DHT22;9178;51.120;6.192;2022-11-15T05:07:44;11.10;99.90
18103;DHT22;9178;51.120;6.192;2022-11-15T05:10:11;11.10;99.90
18103;DHT22;9178;51.120;6.192;2022-11-15T05:12:37;11.10;99.90
18103;DHT22;9178;51.120;6.192;2022-11-15T05:15:05;11.10;99.90
18103;DHT22;9178;51.120;6.192;2022-11-15T05:17:32;11.10;99.90
18103;DHT22;9178;51.120;6.192;2022-11-15T05:19:59;11.20;99.90
18103;DHT22;9178;51.120;6.192;2022-11-15T05:22:26;11.20;99.90
18103;DHT22;9178;51.120;6.192;2022-11-15T05:24:54;11.20;99.90
18103;DHT22;9178;51.120;6.192;2022-11-15T05:27:21;11.10;99.90
18103;DHT22;9178;51.120;6.192;2022-11-15T05:29:48;11.20;99.90
18103;DHT22;9178;51.120;6.192;2022-11-15T05:32:16;11.10;99.90
18103;DHT22;9178;51.120;6.192;2022-11-15T05:34:44;11.20;99.90
18103;DHT22;9178;51.120;6.192;2022-11-15T05:37:11;11.10;99.90
18103;DHT22;9178;51.120;6.192;2022-11-15T05:39:38;11.20;99.90
18103;DHT22;9178;51.120;6.192;2022-11-15T05:42:08;11.10;99.90
18103;DHT22;9178;51.120;6.192;2022-11-15T05:44:36;11.20;99.90
18103;DHT22;9178;51.120;6.192;2022-11-15T05:47:04;11.20;99.90
18103;DHT22;9178;51.120;6.192;2022-11-15T05:49:36;11.20;99.90
18103;DHT22;9178;51.120;6.192;2022-11-15T05:52:06;11.20;99.90
18103;DHT22;9178;51.120;6.192;2022-11-15T05:54:35;11.10;99.90
18103;DHT22;9178;51.120;6.192;2022-11-15T05:57:04;11.20;99.90
18103;DHT22;9178;51.120;6.192;2022-11-15T05:59:33;11.20;99.90
18103;DHT22;9178;51.120;6.192;2022-11-15T06:02:00;11.20;99.90
18103;DHT22;9178;51.120;6.192;2022-11-15T06:04:27;11.20;99.90
18103;DHT22;9178;51.120;6.192;2022-11-15T06:06:54;11.20;99.90
18103;DHT22;9178;51.120;6.192;2022-11-15T06:09:21;11.10;99.90
18103;DHT22;9178;51.120;6.192;2022-11-15T06:11:48;11.10;99.90
18103;DHT22;9178;51.120;6.192;2022-11-15T06:14:15;11.10;99.90
18103;DHT22;9178;51.120;6.192;2022-11-15T06:16:43;11.10;99.90
18103;DHT22;9178;51.120;6.192;2022-11-15T06:19:10;11.20;99.90
18103;DHT22;9178;51.120;6.192;2022-11-15T06:21:37;11.20;99.90
18103;DHT22;9178;51.120;6.192;2022-11-15T06:24:05;11.20;99.90
18103;DHT22;9178;51.120;6.192;2022-11-15T06:26:32;11.20;99.90
18103;DHT22;9178;51.120;6.192;2022-11-15T06:28:59;11.20;99.90
18103;DHT22;9178;51.120;6.192;2022-11-15T06:31:26;11.20;99.90
18103;DHT22;9178;51.120;6.192;2022-11-15T06:33:54;11.20;99.90
18103;DHT22;9178;51.120;6.192;2022-11-15T06:36:21;11.20;99.90
18103;DHT22;9178;51.120;6.192;2022-11-15T06:38:48;11.20;99.90
18103;DHT22;9178;51.120;6.192;2022-11-15T06:41:15;11.20;99.90
18103;DHT22;9178;51.120;6.192;2022-11-15T06:43:42;11.20;99.90
18103;DHT22;9178;51.120;6.192;2022-11-15T06:46:09;11.20;99.90
18103;DHT22;9178;51.120;6.192;2022-11-15T06:48:36;11.20;99.90
18103;DHT22;9178;51.120;6.192;2022-11-15T06:51:05;11.20;99.90
18103;DHT22;9178;51.120;6.192;2022-11-15T06:53:33;11.20;99.90
18103;DHT22;9178;51.120;6.192;2022-11-15T06:56:00;11.20;99.90
18103;DHT22;9178;51.120;6.192;2022-11-15T06:58:28;11.20;99.90
18103;DHT22;9178;51.120;6.192;2022-11-15T07:00:58;11.10;99.90
18103;DHT22;9178;51.120;6.192;2022-11-15T07:03:25;11.10;99.90
18103;DHT22;9178;51.120;6.192;2022-11-15T07:05:53;11.10;99.90
18103;DHT22;9178;51.120;6.192;2022-11-15T07:08:21;11.10;99.90
18103;DHT22;9178;51.120;6.192;2022-11-15T07:10:49;11.10;99.90
18103;DHT22;9178;51.120;6.192;2022-11-15T07:13:16;11.10;99.90
18103;DHT22;9178;51.120;6.192;2022-11-15T07:15:43;11.10;99.90
18103;DHT22;9178;51.120;6.192;2022-11-15T07:18:09;11.10;99.90
18103;DHT22;9178;51.120;6.192;2022-11-15T07:20:36;11.10;99.90
18103;DHT22;9178;51.120;6.192;2022-11-15T07:23:05;11.00;99.90
18103;DHT22;9178;51.120;6.192;2022-11-15T07:25:33;11.00;99.90
18103;DHT22;9178;51.120;6.192;2022-11-15T07:28:01;11.00;99.90
18103;DHT22;9178;51.120;6.192;2022-11-15T07:30:28;10.90;99.90
18103;DHT22;9178;51.120;6.192;2022-11-15T07:32:55;10.90;99.90
18103;DHT22;9178;51.120;6.192;2022-11-15T07:35:23;10.90;99.90
18103;DHT22;9178;51.120;6.192;2022-11-15T07:37:54;10.90;99.90
18103;DHT22;9178;51.120;6.192;2022-11-15T07:40:21;10.80;99.90
18103;DHT22;9178;51.120;6.192;2022-11-15T07:42:49;10.80;99.90
18103;DHT22;9178;51.120;6.192;2022-11-15T07:45:19;10.80;99.90
18103;DHT22;9178;51.120;6.192;2022-11-15T07:47:46;10.80;99.90
18103;DHT22;9178;51.120;6.192;2022-11-15T07:50:13;10.80;99.90
18103;DHT22;9178;51.120;6.192;2022-11-15T07:52:40;10.80;99.90
18103;DHT22;9178;51.120;6.192;2022-11-15T07:55:07;10.90;99.90
18103;DHT22;9178;51.120;6.192;2022-11-15T07:57:34;10.90;99.90
18103;DHT22;9178;51.120;6.192;2022-11-15T08:00:03;10.90;99.90
18103;DHT22;9178;51.120;6.192;2022-11-15T08:02:30;10.90;99.90
18103;DHT22;9178;51.120;6.192;2022-11-15T08:04:57;10.90;99.90
18103;DHT22;9178;51.120;6.192;2022-11-15T08:07:24;10.90;99.90
18103;DHT22;9178;51.120;6.192;2022-11-15T08:09:51;10.90;99.90
18103;DHT22;9178;51.120;6.192;2022-11-15T08:12:18;11.00;99.90
18103;DHT22;9178;51.120;6.192;2022-11-15T08:14:45;11.00;99.90
18103;DHT22;9178;51.120;6.192;2022-11-15T08:17:13;11.00;99.90
18103;DHT22;9178;51.120;6.192;2022-11-15T08:19:40;11.10;99.90
18103;DHT22;9178;51.120;6.192;2022-11-15T08:22:07;11.10;99.90
18103;DHT22;9178;51.120;6.192;2022-11-15T08:24:34;11.10;99.90
18103;DHT22;9178;51.120;6.192;2022-11-15T08:27:00;11.20;99.90
18103;DHT22;9178;51.120;6.192;2022-11-15T08:29:27;11.20;99.90
18103;DHT22;9178;51.120;6.192;2022-11-15T08:31:54;11.30;99.90
18103;DHT22;9178;51.120;6.192;2022-11-15T08:34:23;11.30;99.90
18103;DHT22;9178;51.120;6.192;2022-11-15T08:36:49;11.30;99.90
18103;DHT22;9178;51.120;6.192;2022-11-15T08:39:16;11.40;99.90
18103;DHT22;9178;51.120;6.192;2022-11-15T08:41:43;11.40;99.90
18103;DHT22;9178;51.120;6.192;2022-11-15T08:44:10;11.40;99.90
18103;DHT22;9178;51.120;6.192;2022-11-15T08:46:37;11.40;99.90
18103;DHT22;9178;51.120;6.192;2022-11-15T08:49:04;11.40;99.90
18103;DHT22;9178;51.120;6.192;2022-11-15T08:51:32;11.30;99.90
18103;DHT22;9178;51.120;6.192;2022-11-15T08:53:58;11.40;99.90
18103;DHT22;9178;51.120;6.192;2022-11-15T08:56:25;11.40;99.90
18103;DHT22;9178;51.120;6.192;2022-11-15T08:58:52;11.40;99.90
18103;DHT22;9178;51.120;6.192;2022-11-15T09:01:20;11.30;99.90
18103;DHT22;9178;51.120;6.192;2022-11-15T09:03:47;11.40;99.90
18103;DHT22;9178;51.120;6.192;2022-11-15T09:06:14;11.40;99.90
18103;DHT22;9178;51.120;6.192;2022-11-15T09:08:42;11.40;99.90
18103;DHT22;9178;51.120;6.192;2022-11-15T09:11:10;11.50;99.90
18103;DHT22;9178;51.120;6.192;2022-11-15T09:13:37;11.50;99.90
18103;DHT22;9178;51.120;6.192;2022-11-15T09:16:05;11.40;99.90
18103;DHT22;9178;51.120;6.192;2022-11-15T09:18:32;11.50;99.90
18103;DHT22;9178;51.120;6.192;2022-11-15T09:21:00;11.40;99.90
18103;DHT22;9178;51.120;6.192;2022-11-15T09:23:28;11.40;99.90
18103;DHT22;9178;51.120;6.192;2022-11-15T09:26:00;11.40;99.90
18103;DHT22;9178;51.120;6.192;2022-11-15T09:28:28;11.40;99.90
18103;DHT22;9178;51.120;6.192;2022-11-15T09:30:56;11.40;99.90
18103;DHT22;9178;51.120;6.192;2022-11-15T09:33:24;11.50;99.90
18103;DHT22;9178;51.120;6.192;2022-11-15T09:35:51;11.50;99.90
18103;DHT22;9178;51.120;6.192;2022-11-15T09:38:18;11.40;99.90
18103;DHT22;9178;51.120;6.192;2022-11-15T09:40:49;11.40;99.90
18103;DHT22;9178;51.120;6.192;2022-11-15T09:43:29;11.40;99.90
18103;DHT22;9178;51.120;6.192;2022-11-15T09:46:10;11.50;99.90
18103;DHT22;9178;51.120;6.192;2022-11-15T09:48:51;11.50;99.90
18103;DHT22;9178;51.120;6.192;2022-11-15T09:51:28;11.60;99.90
18103;DHT22;9178;51.120;6.192;2022-11-15T09:54:00;11.60;99.90
18103;DHT22;9178;51.120;6.192;2022-11-15T09:56:30;11.60;99.90
18103;DHT22;9178;51.120;6.192;2022-11-15T09:59:08;11.60;99.90
18103;DHT22;9178;51.120;6.192;2022-11-15T10:01:44;11.60;99.90
18103;DHT22;9178;51.120;6.192;2022-11-15T10:04:13;11.60;99.90
18103;DHT22;9178;51.120;6.192;2022-11-15T10:06:43;11.60;99.90
18103;DHT22;9178;51.120;6.192;2022-11-15T10:09:15;11.60;99.90
18103;DHT22;9178;51.120;6.192;2022-11-15T10:11:43;11.80;99.90
18103;DHT22;9178;51.120;6.192;2022-11-15T10:14:15;12.00;99.90
18103;DHT22;9178;51.120;6.192;2022-11-15T10:17:13;12.20;99.90
18103;DHT22;9178;51.120;6.192;2022-11-15T10:19:55;12.60;99.90
18103;DHT22;9178;51.120;6.192;2022-11-15T10:22:28;13.30;99.90
18103;DHT22;9178;51.120;6.192;2022-11-15T10:25:14;14.30;99.90
18103;DHT22;9178;51.120;6.192;2022-11-15T10:27:43;14.50;99.90
18103;DHT22;9178;51.120;6.192;2022-11-15T10:30:14;14.40;99.90
18103;DHT22;9178;51.120;6.192;2022-11-15T10:32:43;14.30;99.90
18103;DHT22;9178;51.120;6.192;2022-11-15T10:35:19;14.40;99.90
18103;DHT22;9178;51.120;6.192;2022-11-15T10:37:47;14.20;99.90
18103;DHT22;9178;51.120;6.192;2022-11-15T10:40:19;14.10;99.90
18103;DHT22;9178;51.120;6.192;2022-11-15T10:42:47;13.80;99.90
18103;DHT22;9178;51.120;6.192;2022-11-15T10:45:27;13.50;99.90
18103;DHT22;9178;51.120;6.192;2022-11-15T10:48:22;13.40;99.90
18103;DHT22;9178;51.120;6.192;2022-11-15T10:50:50;13.30;99.90
18103;DHT22;9178;51.120;6.192;2022-11-15T10:53:22;13.10;99.90
18103;DHT22;9178;51.120;6.192;2022-11-15T10:55:52;13.00;99.90
18103;DHT22;9178;51.120;6.192;2022-11-15T10:58:23;13.00;99.90
18103;DHT22;9178;51.120;6.192;2022-11-15T11:00:55;12.90;99.90
18103;DHT22;9178;51.120;6.192;2022-11-15T11:03:29;12.90;99.90
18103;DHT22;9178;51.120;6.192;2022-11-15T11:06:08;12.90;99.90
18103;DHT22;9178;51.120;6.192;2022-11-15T11:08:35;12.90;99.90
18103;DHT22;9178;51.120;6.192;2022-11-15T11:11:05;12.90;99.90
18103;DHT22;9178;51.120;6.192;2022-11-15T11:13:34;12.90;99.90
18103;DHT22;9178;51.120;6.192;2022-11-15T11:16:26;12.90;99.90
18103;DHT22;9178;51.120;6.192;2022-11-15T11:19:04;12.90;99.90
18103;DHT22;9178;51.120;6.192;2022-11-15T11:21:42;12.90;99.90
18103;DHT22;9178;51.120;6.192;2022-11-15T11:24:16;12.90;99.90
18103;DHT22;9178;51.120;6.192;2022-11-15T11:26:53;12.90;99.90
18103;DHT22;9178;51.120;6.192;2022-11-15T11:29:38;12.80;99.90
18103;DHT22;9178;51.120;6.192;2022-11-15T11:32:24;12.80;99.90
18103;DHT22;9178;51.120;6.192;2022-11-15T11:35:00;12.70;99.90
18103;DHT22;9178;51.120;6.192;2022-11-15T11:37:36;12.70;99.90
18103;DHT22;9178;51.120;6.192;2022-11-15T11:40:19;12.80;99.90
18103;DHT22;9178;51.120;6.192;2022-11-15T11:42:55;13.20;99.90
18103;DHT22;9178;51.120;6.192;2022-11-15T11:45:44;13.60;99.90
18103;DHT22;9178;51.120;6.192;2022-11-15T11:48:23;13.60;99.90
18103;DHT22;9178;51.120;6.192;2022-11-15T11:51:03;13.60;99.90
18103;DHT22;9178;51.120;6.192;2022-11-15T11:53:39;13.60;99.90
18103;DHT22;9178;51.120;6.192;2022-11-15T11:56:18;13.60;99.90
18103;DHT22;9178;51.120;6.192;2022-11-15T11:58:48;13.50;99.90
18103;DHT22;9178;51.120;6.192;2022-11-15T12:01:22;13.40;99.90
18103;DHT22;9178;51.120;6.192;2022-11-15T12:03:55;13.30;99.90
18103;DHT22;9178;51.120;6.192;2022-11-15T12:06:29;13.30;99.90
18103;DHT22;9178;51.120;6.192;2022-11-15T12:09:01;13.30;99.90
18103;DHT22;9178;51.120;6.192;2022-11-15T12:11:32;13.30;99.90
18103;DHT22;9178;51.120;6.192;2022-11-15T12:14:05;13.20;99.90
18103;DHT22;9178;51.120;6.192;2022-11-15T12:16:42;13.20;99.90
18103;DHT22;9178;51.120;6.192;2022-11-15T12:19:11;13.20;99.90
18103;DHT22;9178;51.120;6.192;2022-11-15T12:21:43;13.20;99.90
18103;DHT22;9178;51.120;6.192;2022-11-15T12:24:19;13.20;99.90
18103;DHT22;9178;51.120;6.192;2022-11-15T12:26:49;13.20;99.90
18103;DHT22;9178;51.120;6.192;2022-11-15T12:29:20;13.20;99.90
18103;DHT22;9178;51.120;6.192;2022-11-15T12:31:50;13.20;99.90
18103;DHT22;9178;51.120;6.192;2022-11-15T12:34:38;13.20;99.90
18103;DHT22;9178;51.120;6.192;2022-11-15T12:40:29;13.20;99.90
18103;DHT22;9178;51.120;6.192;2022-11-15T12:43:02;13.20;99.90
18103;DHT22;9178;51.120;6.192;2022-11-15T12:45:31;13.10;99.90
18103;DHT22;9178;51.120;6.192;2022-11-15T12:51:04;13.20;99.90
18103;DHT22;9178;51.120;6.192;2022-11-15T12:53:33;13.20;99.90
18103;DHT22;9178;51.120;6.192;2022-11-15T12:56:21;13.30;99.90
18103;DHT22;9178;51.120;6.192;2022-11-15T12:58:50;13.30;99.90
18103;DHT22;9178;51.120;6.192;2022-11-15T13:01:56;13.40;99.90
18103;DHT22;9178;51.120;6.192;2022-11-15T13:04:26;13.40;99.90
18103;DHT22;9178;51.120;6.192;2022-11-15T13:06:56;13.40;99.90
18103;DHT22;9178;51.120;6.192;2022-11-15T13:09:56;13.40;99.90
18103;DHT22;9178;51.120;6.192;2022-11-15T13:12:51;13.40;99.90
18103;DHT22;9178;51.120;6.192;2022-11-15T13:15:36;13.40;99.90
18103;DHT22;9178;51.120;6.192;2022-11-15T13:18:36;13.40;99.90
18103;DHT22;9178;51.120;6.192;2022-11-15T13:21:17;13.40;99.90
18103;DHT22;9178;51.120;6.192;2022-11-15T13:24:04;13.50;99.90
18103;DHT22;9178;51.120;6.192;2022-11-15T13:26:31;13.50;99.90
18103;DHT22;9178;51.120;6.192;2022-11-15T13:28:59;13.50;99.90
18103;DHT22;9178;51.120;6.192;2022-11-15T13:31:29;13.50;99.90
18103;DHT22;9178;51.120;6.192;2022-11-15T13:33:59;13.50;99.90
18103;DHT22;9178;51.120;6.192;2022-11-15T13:36:28;13.50;99.90
18103;DHT22;9178;51.120;6.192;2022-11-15T13:39:00;13.40;99.90
18103;DHT22;9178;51.120;6.192;2022-11-15T13:41:31;13.40;99.90
18103;DHT22;9178;51.120;6.192;2022-11-15T13:43:59;13.40;99.90
18103;DHT22;9178;51.120;6.192;2022-11-15T13:46:27;13.40;99.90
18103;DHT22;9178;51.120;6.192;2022-11-15T13:48:57;13.40;99.90
18103;DHT22;9178;51.120;6.192;2022-11-15T13:51:33;13.40;99.90
18103;DHT22;9178;51.120;6.192;2022-11-15T13:54:08;13.40;99.90
18103;DHT22;9178;51.120;6.192;2022-11-15T13:56:44;13.40;99.90
18103;DHT22;9178;51.120;6.192;2022-11-15T13:59:15;13.40;99.90
18103;DHT22;9178;51.120;6.192;2022-11-15T14:01:44;13.40;99.90
18103;DHT22;9178;51.120;6.192;2022-11-15T14:04:13;13.40;99.90
18103;DHT22;9178;51.120;6.192;2022-11-15T14:06:45;13.40;99.90
18103;DHT22;9178;51.120;6.192;2022-11-15T14:09:34;13.40;99.90
18103;DHT22;9178;51.120;6.192;2022-11-15T14:12:23;13.40;99.90
18103;DHT22;9178;51.120;6.192;2022-11-15T14:14:50;13.40;99.90
18103;DHT22;9178;51.120;6.192;2022-11-15T14:17:21;13.30;99.90
18103;DHT22;9178;51.120;6.192;2022-11-15T14:19:49;13.30;99.90
18103;DHT22;9178;51.120;6.192;2022-11-15T14:22:19;13.30;99.90
18103;DHT22;9178;51.120;6.192;2022-11-15T14:27:32;13.30;99.90
18103;DHT22;9178;51.120;6.192;2022-11-15T14:29:59;13.30;99.90
18103;DHT22;9178;51.120;6.192;2022-11-15T14:32:28;13.30;99.90
18103;DHT22;9178;51.120;6.192;2022-11-15T14:34:57;13.30;99.90
18103;DHT22;9178;51.120;6.192;2022-11-15T14:37:25;13.30;99.90
18103;DHT22;9178;51.120;6.192;2022-11-15T14:39:53;13.30;99.90
18103;DHT22;9178;51.120;6.192;2022-11-15T14:42:20;13.40;99.90
18103;DHT22;9178;51.120;6.192;2022-11-15T14:44:49;13.40;99.90
18103;DHT22;9178;51.120;6.192;2022-11-15T14:47:16;13.40;99.90
18103;DHT22;9178;51.120;6.192;2022-11-15T14:49:43;13.40;99.90
18103;DHT22;9178;51.120;6.192;2022-11-15T14:52:23;13.40;99.90
18103;DHT22;9178;51.120;6.192;2022-11-15T14:54:50;13.40;99.90
18103;DHT22;9178;51.120;6.192;2022-11-15T14:57:17;13.40;99.90
18103;DHT22;9178;51.120;6.192;2022-11-15T14:59:44;13.40;99.90
18103;DHT22;9178;51.120;6.192;2022-11-15T15:02:17;13.40;99.90
18103;DHT22;9178;51.120;6.192;2022-11-15T15:04:44;13.40;99.90
18103;DHT22;9178;51.120;6.192;2022-11-15T15:07:11;13.40;99.90
18103;DHT22;9178;51.120;6.192;2022-11-15T15:09:38;13.40;99.90
18103;DHT22;9178;51.120;6.192;2022-11-15T15:12:08;13.30;99.90
18103;DHT22;9178;51.120;6.192;2022-11-15T15:14:38;13.40;99.90
18103;DHT22;9178;51.120;6.192;2022-11-15T15:17:05;13.30;99.90
18103;DHT22;9178;51.120;6.192;2022-11-15T15:19:33;13.30;99.90
18103;DHT22;9178;51.120;6.192;2022-11-15T15:22:00;13.30;99.90
18103;DHT22;9178;51.120;6.192;2022-11-15T15:24:27;13.30;99.90
18103;DHT22;9178;51.120;6.192;2022-11-15T15:26:53;13.30;99.90
18103;DHT22;9178;51.120;6.192;2022-11-15T15:29:20;13.30;99.90
18103;DHT22;9178;51.120;6.192;2022-11-15T15:31:47;13.30;99.90
18103;DHT22;9178;51.120;6.192;2022-11-15T15:34:14;13.20;99.90
18103;DHT22;9178;51.120;6.192;2022-11-15T15:36:42;13.20;99.90
18103;DHT22;9178;51.120;6.192;2022-11-15T15:39:10;13.20;99.90
18103;DHT22;9178;51.120;6.192;2022-11-15T15:41:37;13.20;99.90
18103;DHT22;9178;51.120;6.192;2022-11-15T15:44:04;13.20;99.90
18103;DHT22;9178;51.120;6.192;2022-11-15T15:46:31;13.20;99.90
18103;DHT22;9178;51.120;6.192;2022-11-15T15:48:58;13.20;99.90
18103;DHT22;9178;51.120;6.192;2022-11-15T15:51:24;13.20;99.90
18103;DHT22;9178;51.120;6.192;2022-11-15T15:53:52;13.20;99.90
18103;DHT22;9178;51.120;6.192;2022-11-15T15:56:22;13.20;99.90
18103;DHT22;9178;51.120;6.192;2022-11-15T15:58:49;13.20;99.90
18103;DHT22;9178;51.120;6.192;2022-11-15T16:01:18;13.20;99.90
18103;DHT22;9178;51.120;6.192;2022-11-15T16:03:45;13.20;99.90
18103;DHT22;9178;51.120;6.192;2022-11-15T16:06:34;13.20;99.90
18103;DHT22;9178;51.120;6.192;2022-11-15T16:09:04;13.10;99.90
18103;DHT22;9178;51.120;6.192;2022-11-15T16:11:31;13.10;99.90
18103;DHT22;9178;51.120;6.192;2022-11-15T16:13:57;13.10;99.90
18103;DHT22;9178;51.120;6.192;2022-11-15T16:16:24;13.10;99.90
18103;DHT22;9178;51.120;6.192;2022-11-15T16:18:51;13.10;99.90